Time;durP1;ratioP1;P1;durP2;ratioP2;P2;SDS_P1;SDS_P2;PMS_P1;PMS_P2;Temp;Humidity;BMP_temperature;BMP_pressure;BME280_temperature;BME280_humidity;BME280_pressure;Samples;Min_cycle;Max_cycle;Signal;HPM_P1;HPM_P2
2023/01/14 00:00:52;;;;;;;14.13;2.97;;;;;;;;;;4980240;28;99239;-71
2023/01/14 00:03:19;;;;;;;16.42;2.55;;;;;;;;;;4973723;28;100816;-70
2023/01/14 00:06:03;;;;;;;17.30;3.25;;;;;;;;;;4980231;28;100173;-70
2023/01/14 00:08:30;;;;;;;14.95;2.70;;;;;;;;;;4984965;28;100165;-71
2023/01/14 00:11:00;;;;;;;16.63;3.60;;;;;;;;;;4979810;28;99474;-71
2023/01/14 00:13:26;;;;;;;19.45;3.35;;;;;;;;;;4988603;28;99266;-71
2023/01/14 00:15:53;;;;;;;20.42;3.92;;;;;;;;;;4984705;28;100263;-71
2023/01/14 00:18:21;;;;;;;20.50;3.80;;;;;;;;;;4973881;28;100287;-71
2023/01/14 00:21:06;;;;;;;18.45;3.67;;;;;;;;;;4980550;28;98908;-71
2023/01/14 00:23:34;;;;;;;17.45;3.88;;;;;;;;;;4982064;28;99620;-70
2023/01/14 00:26:09;;;;;;;7.03;2.03;;;;;;;;;;4985193;28;100128;-70
2023/01/14 00:28:35;;;;;;;16.23;3.17;;;;;;;;;;4985716;28;100962;-71
2023/01/14 00:31:02;;;;;;;21.55;2.85;;;;;;;;;;4983180;28;101405;-70
2023/01/14 00:33:29;;;;;;;9.90;2.67;;;;;;;;;;4984926;28;100130;-71
2023/01/14 00:35:55;;;;;;;22.48;4.57;;;;;;;;;;4983858;28;101134;-71
2023/01/14 00:38:23;;;;;;;22.08;3.97;;;;;;;;;;4967240;28;99750;-71
2023/01/14 00:40:58;;;;;;;14.40;3.25;;;;;;;;;;4971742;28;99863;-71
2023/01/14 00:43:25;;;;;;;19.20;3.30;;;;;;;;;;4972842;28;99143;-71
2023/01/14 00:45:51;;;;;;;16.88;3.30;;;;;;;;;;4977648;28;98702;-70
2023/01/14 00:48:17;;;;;;;15.82;3.75;;;;;;;;;;4997831;28;101213;-70
2023/01/14 00:50:44;;;;;;;18.67;3.50;;;;;;;;;;4983235;28;99157;-70
2023/01/14 00:53:10;;;;;;;24.98;4.00;;;;;;;;;;4983421;28;99479;-70
2023/01/14 00:55:36;;;;;;;23.10;3.83;;;;;;;;;;4984767;28;101325;-71
2023/01/14 00:58:02;;;;;;;27.70;3.88;;;;;;;;;;4984090;28;99508;-71
2023/01/14 01:00:29;;;;;;;14.95;3.05;;;;;;;;;;4984463;28;99569;-71
2023/01/14 01:02:57;;;;;;;23.25;3.35;;;;;;;;;;4985196;28;98867;-71
2023/01/14 01:05:23;;;;;;;24.80;3.90;;;;;;;;;;4972375;28;98958;-71
2023/01/14 01:07:50;;;;;;;16.00;3.30;;;;;;;;;;4966990;28;100039;-71
2023/01/14 01:10:16;;;;;;;15.85;3.25;;;;;;;;;;4983814;28;99153;-71
2023/01/14 01:12:42;;;;;;;14.70;3.97;;;;;;;;;;5006380;27;100147;-71
2023/01/14 01:15:09;;;;;;;15.98;3.08;;;;;;;;;;4983231;28;99174;-70
2023/01/14 01:17:35;;;;;;;17.40;3.10;;;;;;;;;;4986658;28;99276;-71
2023/01/14 01:20:02;;;;;;;17.48;3.03;;;;;;;;;;4977812;28;99211;-70
2023/01/14 01:22:28;;;;;;;15.73;2.88;;;;;;;;;;4984992;28;98940;-70
2023/01/14 01:24:54;;;;;;;17.38;4.10;;;;;;;;;;4984111;28;99547;-71
2023/01/14 01:27:21;;;;;;;19.65;3.35;;;;;;;;;;4981659;28;99140;-72
2023/01/14 01:29:47;;;;;;;14.98;3.40;;;;;;;;;;4984944;28;100103;-71
2023/01/14 01:32:13;;;;;;;15.88;4.47;;;;;;;;;;4983073;28;99845;-70
2023/01/14 01:34:40;;;;;;;17.13;3.33;;;;;;;;;;4981891;28;99502;-71
2023/01/14 01:37:06;;;;;;;14.63;2.90;;;;;;;;;;4979818;28;98928;-70
2023/01/14 01:39:32;;;;;;;21.92;4.22;;;;;;;;;;4986330;28;101025;-70
2023/01/14 01:42:01;;;;;;;24.85;4.38;;;;;;;;;;4981670;28;99609;-70
2023/01/14 01:44:28;;;;;;;15.10;3.15;;;;;;;;;;4980010;28;100415;-70
2023/01/14 01:46:55;;;;;;;21.30;3.78;;;;;;;;;;4983810;28;100060;-70
2023/01/14 01:49:26;;;;;;;20.85;3.35;;;;;;;;;;4982006;28;98833;-71
2023/01/14 01:52:11;;;;;;;24.17;3.58;;;;;;;;;;4971614;28;99270;-70
2023/01/14 01:54:41;;;;;;;15.60;3.03;;;;;;;;;;4968200;28;100386;-71
2023/01/14 01:57:09;;;;;;;15.18;3.38;;;;;;;;;;4980889;28;100289;-71
2023/01/14 01:59:39;;;;;;;21.27;4.18;;;;;;;;;;4981284;28;101617;-71
2023/01/14 02:02:07;;;;;;;20.83;5.90;;;;;;;;;;4985651;28;100368;-70
2023/01/14 02:04:34;;;;;;;20.60;3.92;;;;;;;;;;4983396;28;98837;-70
2023/01/14 02:07:11;;;;;;;21.58;3.85;;;;;;;;;;4982286;28;102578;-70
2023/01/14 02:09:37;;;;;;;15.15;3.00;;;;;;;;;;4981453;28;99098;-71
2023/01/14 02:12:30;;;;;;;30.73;3.95;;;;;;;;;;4978254;28;99259;-71
2023/01/14 02:15:02;;;;;;;31.70;5.70;;;;;;;;;;4957482;28;99504;-71
2023/01/14 02:17:47;;;;;;;24.92;3.70;;;;;;;;;;4993745;28;101835;-70
2023/01/14 02:20:18;;;;;;;22.27;4.10;;;;;;;;;;4980174;28;99798;-70
2023/01/14 02:22:53;;;;;;;29.73;4.10;;;;;;;;;;4981923;28;99303;-70
2023/01/14 02:25:49;;;;;;;16.48;3.25;;;;;;;;;;4980615;28;99080;-70
2023/01/14 02:28:31;;;;;;;27.88;4.40;;;;;;;;;;4981845;28;101499;-71
2023/01/14 02:31:09;;;;;;;35.33;4.15;;;;;;;;;;4977159;28;99472;-70
2023/01/14 02:33:49;;;;;;;23.30;5.32;;;;;;;;;;4996549;28;100952;-70
2023/01/14 02:36:24;;;;;;;21.08;3.47;;;;;;;;;;4982748;28;99430;-70
2023/01/14 02:39:09;;;;;;;21.92;3.95;;;;;;;;;;4982916;28;99335;-70
2023/01/14 02:44:32;;;;;;;24.40;5.10;;;;;;;;;;5008970;28;99259;-71
2023/01/14 02:47:00;;;;;;;16.42;4.00;;;;;;;;;;4976069;28;100919;-70
2023/01/14 02:49:31;;;;;;;24.67;4.85;;;;;;;;;;5012233;28;98996;-71
2023/01/14 02:51:58;;;;;;;22.02;4.38;;;;;;;;;;4982046;28;98973;-71
2023/01/14 02:54:27;;;;;;;26.25;4.25;;;;;;;;;;4980806;28;100924;-71
2023/01/14 02:56:55;;;;;;;17.70;3.92;;;;;;;;;;4992855;28;100260;-71
2023/01/14 02:59:38;;;;;;;25.52;4.88;;;;;;;;;;4982462;28;100077;-72
2023/01/14 03:02:24;;;;;;;32.20;4.75;;;;;;;;;;4984432;28;102080;-70
2023/01/14 03:05:04;;;;;;;28.33;5.32;;;;;;;;;;4980499;28;101875;-70
2023/01/14 03:07:38;;;;;;;21.42;4.18;;;;;;;;;;4983365;28;100223;-71
2023/01/14 03:10:06;;;;;;;19.80;3.83;;;;;;;;;;4990560;28;98910;-70
2023/01/14 03:12:32;;;;;;;24.88;3.78;;;;;;;;;;4986108;28;99832;-71
2023/01/14 03:15:12;;;;;;;33.90;5.55;;;;;;;;;;4983731;28;99236;-71
2023/01/14 03:17:40;;;;;;;23.77;4.28;;;;;;;;;;4986341;28;99484;-71
2023/01/14 03:20:07;;;;;;;21.10;4.80;;;;;;;;;;4994473;28;101044;-71
2023/01/14 03:22:34;;;;;;;25.92;4.63;;;;;;;;;;4974944;28;98781;-71
2023/01/14 03:25:01;;;;;;;28.27;3.88;;;;;;;;;;4981687;28;100310;-71
2023/01/14 03:27:31;;;;;;;31.08;4.53;;;;;;;;;;4981566;28;99454;-70
2023/01/14 03:30:01;;;;;;;26.83;3.72;;;;;;;;;;4985207;28;98893;-70
2023/01/14 03:32:30;;;;;;;25.33;5.43;;;;;;;;;;4988218;28;101384;-71
2023/01/14 03:34:59;;;;;;;28.90;4.30;;;;;;;;;;4982643;28;100040;-70
2023/01/14 03:37:28;;;;;;;23.90;4.20;;;;;;;;;;4984319;28;101509;-69
2023/01/14 03:39:55;;;;;;;26.48;4.45;;;;;;;;;;4986526;28;100050;-72
2023/01/14 03:42:24;;;;;;;30.30;4.72;;;;;;;;;;4983424;28;99455;-70
2023/01/14 03:45:17;;;;;;;24.17;4.78;;;;;;;;;;4986231;28;99541;-71
2023/01/14 03:47:44;;;;;;;23.90;4.87;;;;;;;;;;4983578;28;100162;-70
2023/01/14 03:50:12;;;;;;;33.67;5.63;;;;;;;;;;4982248;28;100059;-70
2023/01/14 03:52:46;;;;;;;28.67;4.97;;;;;;;;;;4985582;28;100430;-70
2023/01/14 03:55:30;;;;;;;31.08;6.22;;;;;;;;;;4982432;28;100183;-70
2023/01/14 03:58:02;;;;;;;35.00;7.13;;;;;;;;;;4968851;28;100004;-70
2023/01/14 04:00:40;;;;;;;23.05;5.07;;;;;;;;;;4985500;28;101060;-72
2023/01/14 04:03:09;;;;;;;28.58;5.97;;;;;;;;;;4966864;28;99824;-70
2023/01/14 04:05:36;;;;;;;31.50;5.75;;;;;;;;;;4986161;28;100123;-71
2023/01/14 04:08:03;;;;;;;36.28;6.85;;;;;;;;;;4984591;28;100143;-71
2023/01/14 04:10:30;;;;;;;33.13;5.15;;;;;;;;;;4984397;28;99171;-71
2023/01/14 04:15:41;;;;;;;35.30;6.32;;;;;;;;;;4981625;28;100195;-70
2023/01/14 04:18:08;;;;;;;31.98;6.50;;;;;;;;;;4988872;28;100661;-70
2023/01/14 04:20:34;;;;;;;37.88;6.70;;;;;;;;;;4984514;28;100108;-70
2023/01/14 04:23:00;;;;;;;26.10;5.85;;;;;;;;;;4982532;28;99144;-69
2023/01/14 04:25:26;;;;;;;33.85;6.75;;;;;;;;;;4978762;28;99295;-70
2023/01/14 04:27:53;;;;;;;35.33;6.82;;;;;;;;;;4985286;28;100350;-71
2023/01/14 04:30:19;;;;;;;33.83;7.07;;;;;;;;;;4981379;28;100130;-70
2023/01/14 04:32:45;;;;;;;36.30;6.55;;;;;;;;;;4985312;28;99654;-71
2023/01/14 04:35:12;;;;;;;33.38;7.90;;;;;;;;;;4979029;28;101465;-70
2023/01/14 04:37:38;;;;;;;44.40;6.63;;;;;;;;;;4967884;28;99042;-70
2023/01/14 04:40:05;;;;;;;40.60;6.95;;;;;;;;;;4986547;28;101378;-71
2023/01/14 04:42:31;;;;;;;27.58;5.32;;;;;;;;;;4985999;28;99660;-71
2023/01/14 04:44:59;;;;;;;36.10;6.50;;;;;;;;;;4983179;28;100287;-71
2023/01/14 04:47:26;;;;;;;36.22;5.85;;;;;;;;;;4985427;28;99309;-72
2023/01/14 04:49:52;;;;;;;27.23;5.05;;;;;;;;;;4984106;28;99991;-71
2023/01/14 04:52:19;;;;;;;38.10;6.57;;;;;;;;;;4984646;28;100296;-70
2023/01/14 04:54:45;;;;;;;39.88;7.88;;;;;;;;;;4983137;28;100208;-70
2023/01/14 04:57:12;;;;;;;49.13;8.13;;;;;;;;;;4982799;28;100189;-71
2023/01/14 04:59:38;;;;;;;42.10;7.45;;;;;;;;;;4984511;28;99334;-71
2023/01/14 05:02:05;;;;;;;37.60;6.50;;;;;;;;;;4988279;28;99585;-71
2023/01/14 05:04:31;;;;;;;39.15;6.10;;;;;;;;;;4979045;28;100170;-71
2023/01/14 05:06:58;;;;;;;41.67;6.93;;;;;;;;;;4984304;28;99181;-71
2023/01/14 05:09:24;;;;;;;33.55;6.82;;;;;;;;;;4985101;28;99086;-71
2023/01/14 05:11:51;;;;;;;28.80;6.20;;;;;;;;;;4980837;28;99310;-71
2023/01/14 05:14:17;;;;;;;39.88;6.07;;;;;;;;;;4984986;28;99109;-71
2023/01/14 05:16:43;;;;;;;45.45;6.95;;;;;;;;;;4985160;28;100877;-71
2023/01/14 05:19:10;;;;;;;39.97;6.45;;;;;;;;;;4977586;28;99889;-71
2023/01/14 05:21:36;;;;;;;33.28;7.15;;;;;;;;;;4988439;28;100052;-71
2023/01/14 05:24:02;;;;;;;31.33;5.53;;;;;;;;;;4983425;28;100275;-71
2023/01/14 05:26:29;;;;;;;36.33;5.88;;;;;;;;;;4982519;28;99940;-71
2023/01/14 05:28:55;;;;;;;30.00;6.15;;;;;;;;;;4979493;28;100604;-71
2023/01/14 05:31:21;;;;;;;35.50;6.93;;;;;;;;;;4974291;28;100375;-71
2023/01/14 05:33:48;;;;;;;33.97;6.05;;;;;;;;;;4964933;28;100176;-71
2023/01/14 05:36:14;;;;;;;41.80;6.20;;;;;;;;;;4975334;28;98947;-71
2023/01/14 05:38:41;;;;;;;36.35;6.45;;;;;;;;;;4974833;28;99460;-71
2023/01/14 05:41:11;;;;;;;35.30;4.93;;;;;;;;;;4977388;28;99932;-71
2023/01/14 05:46:22;;;;;;;35.72;4.85;;;;;;;;;;4986455;27;99091;-71
2023/01/14 05:48:48;;;;;;;33.45;5.72;;;;;;;;;;4983768;28;98528;-71
2023/01/14 05:51:15;;;;;;;36.08;5.78;;;;;;;;;;4983359;28;100137;-71
2023/01/14 05:53:41;;;;;;;33.60;5.10;;;;;;;;;;4984160;28;101018;-70
2023/01/14 05:56:07;;;;;;;31.98;5.47;;;;;;;;;;4983684;28;100753;-70
2023/01/14 05:58:34;;;;;;;36.13;5.40;;;;;;;;;;4978691;28;100546;-71
2023/01/14 06:06:38;;;;;;;28.27;5.50;;;;;;;;;;4987586;27;99460;-70
2023/01/14 06:09:06;;;;;;;31.98;5.38;;;;;;;;;;4983550;28;99156;-70
2023/01/14 06:11:32;;;;;;;29.88;4.82;;;;;;;;;;4983480;28;98910;-71
2023/01/14 06:13:59;;;;;;;34.72;5.47;;;;;;;;;;4982563;28;100043;-71
2023/01/14 06:16:27;;;;;;;30.33;5.72;;;;;;;;;;4981089;28;99881;-71
2023/01/14 06:18:54;;;;;;;32.92;5.15;;;;;;;;;;4983106;28;101388;-71
2023/01/14 06:21:22;;;;;;;38.75;5.60;;;;;;;;;;4984218;28;99016;-70
2023/01/14 06:23:49;;;;;;;27.63;4.85;;;;;;;;;;4976238;28;99170;-70
2023/01/14 06:26:16;;;;;;;29.83;4.88;;;;;;;;;;4982775;28;99213;-70
2023/01/14 06:28:43;;;;;;;33.40;4.43;;;;;;;;;;4977558;28;98954;-70
2023/01/14 06:31:14;;;;;;;25.48;4.47;;;;;;;;;;4977106;28;100392;-70
2023/01/14 06:33:41;;;;;;;35.22;5.57;;;;;;;;;;4965928;28;99898;-71
2023/01/14 06:36:08;;;;;;;23.70;4.88;;;;;;;;;;4985531;28;99210;-71
2023/01/14 06:38:34;;;;;;;27.77;6.13;;;;;;;;;;4972982;28;99823;-71
2023/01/14 06:41:02;;;;;;;28.15;6.18;;;;;;;;;;4986095;28;100098;-71
2023/01/14 06:43:28;;;;;;;25.67;4.60;;;;;;;;;;4984142;28;99976;-70
2023/01/14 06:45:55;;;;;;;26.90;4.75;;;;;;;;;;4979095;28;100069;-71
2023/01/14 06:48:21;;;;;;;31.70;5.22;;;;;;;;;;4984055;28;100067;-71
2023/01/14 06:50:48;;;;;;;30.33;4.35;;;;;;;;;;4988554;28;99931;-70
2023/01/14 06:53:14;;;;;;;32.03;4.47;;;;;;;;;;4986965;28;99996;-70
2023/01/14 06:55:41;;;;;;;25.08;3.95;;;;;;;;;;4985926;28;99997;-70
2023/01/14 06:58:07;;;;;;;19.35;4.43;;;;;;;;;;4984875;28;100170;-70
2023/01/14 07:00:34;;;;;;;26.35;4.15;;;;;;;;;;4987590;28;100123;-71
2023/01/14 07:03:00;;;;;;;31.05;5.18;;;;;;;;;;4984577;28;100093;-71
2023/01/14 07:05:26;;;;;;;24.42;5.30;;;;;;;;;;4983903;28;100181;-70
2023/01/14 07:07:53;;;;;;;24.90;4.85;;;;;;;;;;4981330;28;99902;-70
2023/01/14 07:10:19;;;;;;;21.67;5.20;;;;;;;;;;4989014;28;100044;-70
2023/01/14 07:12:46;;;;;;;26.05;4.38;;;;;;;;;;4985934;28;99150;-71
2023/01/14 07:15:14;;;;;;;22.98;4.55;;;;;;;;;;4986388;28;99046;-70
2023/01/14 07:17:40;;;;;;;26.50;4.30;;;;;;;;;;4978830;28;100312;-70
2023/01/14 07:20:08;;;;;;;35.42;7.15;;;;;;;;;;4984069;28;99433;-70
2023/01/14 07:22:34;;;;;;;29.50;4.32;;;;;;;;;;4985478;28;98981;-70
2023/01/14 07:25:03;;;;;;;20.48;5.00;;;;;;;;;;4987275;28;98730;-71
2023/01/14 07:27:30;;;;;;;29.10;4.93;;;;;;;;;;4986301;28;99511;-70
2023/01/14 07:29:57;;;;;;;32.85;5.47;;;;;;;;;;4983621;28;100276;-70
2023/01/14 07:32:23;;;;;;;27.90;5.50;;;;;;;;;;4975421;28;99947;-70
2023/01/14 07:34:50;;;;;;;24.75;4.97;;;;;;;;;;4984672;28;100375;-71
2023/01/14 07:37:16;;;;;;;26.55;4.88;;;;;;;;;;4984426;28;99482;-71
2023/01/14 07:39:43;;;;;;;22.45;4.47;;;;;;;;;;4985989;28;99282;-74
2023/01/14 07:42:09;;;;;;;36.45;5.43;;;;;;;;;;4986182;28;100111;-72
2023/01/14 07:44:36;;;;;;;31.30;3.58;;;;;;;;;;4974757;28;100160;-73
2023/01/14 07:47:02;;;;;;;28.90;5.70;;;;;;;;;;4979642;28;99989;-73
2023/01/14 07:49:28;;;;;;;26.25;5.10;;;;;;;;;;4974497;28;99269;-74
2023/01/14 07:51:55;;;;;;;27.17;5.65;;;;;;;;;;4982671;28;100771;-71
2023/01/14 07:54:21;;;;;;;25.23;4.90;;;;;;;;;;4975734;28;99999;-71
2023/01/14 07:56:48;;;;;;;19.23;4.50;;;;;;;;;;4978429;28;99372;-71
2023/01/14 07:59:14;;;;;;;22.67;4.43;;;;;;;;;;4983548;28;99006;-70
2023/01/14 08:01:40;;;;;;;23.35;4.57;;;;;;;;;;4984132;28;99424;-70
2023/01/14 08:04:07;;;;;;;24.65;4.68;;;;;;;;;;4977915;28;100221;-71
2023/01/14 08:06:34;;;;;;;24.00;4.45;;;;;;;;;;4984479;28;99033;-71
2023/01/14 08:09:03;;;;;;;23.40;4.43;;;;;;;;;;4983900;28;99132;-73
2023/01/14 08:11:30;;;;;;;28.60;4.13;;;;;;;;;;4984986;28;99590;-72
2023/01/14 08:13:57;;;;;;;18.23;4.45;;;;;;;;;;4984890;28;99289;-73
2023/01/14 08:16:23;;;;;;;15.70;3.80;;;;;;;;;;4985972;28;99441;-73
2023/01/14 08:18:49;;;;;;;23.45;5.15;;;;;;;;;;4985869;28;100530;-73
2023/01/14 08:21:16;;;;;;;11.32;3.00;;;;;;;;;;4984670;28;100008;-73
2023/01/14 08:23:43;;;;;;;27.23;4.63;;;;;;;;;;4978286;28;100609;-72
2023/01/14 08:26:11;;;;;;;14.63;4.20;;;;;;;;;;4983413;28;99172;-72
2023/01/14 08:28:38;;;;;;;12.18;3.60;;;;;;;;;;4985708;28;99182;-72
2023/01/14 08:31:06;;;;;;;17.98;4.72;;;;;;;;;;4977565;28;100502;-72
2023/01/14 08:33:32;;;;;;;12.30;4.15;;;;;;;;;;4985205;28;99907;-72
2023/01/14 08:36:05;;;;;;;11.90;3.83;;;;;;;;;;4984540;28;100129;-72
2023/01/14 08:38:33;;;;;;;14.40;4.43;;;;;;;;;;4983873;28;98542;-72
2023/01/14 08:41:02;;;;;;;10.73;3.45;;;;;;;;;;4982304;28;99931;-73
2023/01/14 08:43:28;;;;;;;11.70;3.60;;;;;;;;;;4969700;28;100328;-72
2023/01/14 08:45:54;;;;;;;19.08;4.25;;;;;;;;;;4981501;28;99371;-71
2023/01/14 08:48:21;;;;;;;16.63;4.55;;;;;;;;;;4981315;28;100699;-72
2023/01/14 08:50:47;;;;;;;11.18;4.07;;;;;;;;;;4979913;28;100790;-72
2023/01/14 08:53:14;;;;;;;14.30;3.78;;;;;;;;;;4974491;28;99562;-71
2023/01/14 08:55:40;;;;;;;4.22;2.28;;;;;;;;;;4983278;28;98924;-74
2023/01/14 08:58:06;;;;;;;9.48;2.88;;;;;;;;;;4970433;28;100216;-72
2023/01/14 09:00:33;;;;;;;14.40;3.63;;;;;;;;;;4978367;28;99389;-73
2023/01/14 09:03:00;;;;;;;8.70;3.30;;;;;;;;;;4982160;28;100371;-71
2023/01/14 09:05:26;;;;;;;7.57;2.90;;;;;;;;;;4974851;28;99346;-71
2023/01/14 09:18:57;;;;;;;5.80;3.10;;;;;;;;;;4975751;28;99488;-72
2023/01/14 09:21:24;;;;;;;12.20;3.05;;;;;;;;;;4982570;28;99284;-72
2023/01/14 09:23:50;;;;;;;8.35;3.65;;;;;;;;;;4977368;28;100594;-72
2023/01/14 09:26:19;;;;;;;11.65;3.75;;;;;;;;;;4973357;27;99127;-72
2023/01/14 09:28:46;;;;;;;9.52;3.40;;;;;;;;;;4978976;28;99955;-72
2023/01/14 09:31:12;;;;;;;7.10;2.75;;;;;;;;;;4980633;28;100265;-72
2023/01/14 09:33:39;;;;;;;4.43;2.78;;;;;;;;;;4976774;28;100268;-73
2023/01/14 09:36:06;;;;;;;9.55;3.00;;;;;;;;;;4981658;28;100126;-72
2023/01/14 09:38:33;;;;;;;13.82;3.55;;;;;;;;;;4977758;28;98735;-73
2023/01/14 09:40:59;;;;;;;11.18;2.90;;;;;;;;;;4979912;28;99169;-71
2023/01/14 09:43:41;;;;;;;6.15;2.50;;;;;;;;;;4983339;28;99925;-73
2023/01/14 09:46:08;;;;;;;6.43;2.70;;;;;;;;;;4980186;28;99972;-72
2023/01/14 09:48:34;;;;;;;7.07;2.83;;;;;;;;;;4977524;28;99776;-72
2023/01/14 09:51:07;;;;;;;4.82;2.58;;;;;;;;;;4975260;28;100533;-72
2023/01/14 09:53:52;;;;;;;12.02;2.92;;;;;;;;;;4975080;28;100183;-71
2023/01/14 09:56:23;;;;;;;5.75;2.90;;;;;;;;;;4976114;28;99789;-71
2023/01/14 09:58:54;;;;;;;7.78;3.15;;;;;;;;;;4976683;28;100071;-72
2023/01/14 10:01:21;;;;;;;5.47;2.70;;;;;;;;;;4975747;28;100445;-72
2023/01/14 10:03:53;;;;;;;7.50;2.58;;;;;;;;;;4984935;28;99681;-72
2023/01/14 10:06:20;;;;;;;7.20;2.65;;;;;;;;;;4979900;28;99943;-70
2023/01/14 10:08:49;;;;;;;10.00;3.22;;;;;;;;;;4974630;28;99473;-70
2023/01/14 10:11:16;;;;;;;4.22;2.80;;;;;;;;;;4981695;28;100198;-71
2023/01/14 10:13:53;;;;;;;15.10;3.00;;;;;;;;;;4979959;28;99946;-70
2023/01/14 10:16:33;;;;;;;5.70;2.63;;;;;;;;;;4980584;28;100144;-71
2023/01/14 10:19:23;;;;;;;11.73;2.70;;;;;;;;;;4970987;28;99255;-71
2023/01/14 10:21:51;;;;;;;6.88;2.95;;;;;;;;;;4976351;28;100312;-71
2023/01/14 10:24:19;;;;;;;7.43;2.63;;;;;;;;;;4979723;28;98891;-71
2023/01/14 10:26:49;;;;;;;9.27;3.28;;;;;;;;;;4975496;28;100773;-71
2023/01/14 10:29:20;;;;;;;12.68;2.85;;;;;;;;;;4979101;28;100450;-72
2023/01/14 10:31:48;;;;;;;6.70;2.50;;;;;;;;;;4984412;28;99471;-70
2023/01/14 10:34:20;;;;;;;9.40;2.67;;;;;;;;;;4976132;28;100141;-70
2023/01/14 10:36:47;;;;;;;;;;;;;;;;;;4975333;28;100352;-69
2023/01/14 10:39:13;;;;;;;8.65;2.25;;;;;;;;;;4982085;28;113141;-70
2023/01/14 10:41:49;;;;;;;5.63;2.38;;;;;;;;;;4984098;28;99995;-70
2023/01/14 10:44:21;;;;;;;4.93;2.10;;;;;;;;;;4979150;28;99402;-70
2023/01/14 10:46:48;;;;;;;13.15;2.80;;;;;;;;;;4977370;28;100414;-71
2023/01/14 10:49:16;;;;;;;8.85;2.63;;;;;;;;;;4974562;28;100181;-70
2023/01/14 10:51:52;;;;;;;9.82;3.08;;;;;;;;;;4978693;28;100273;-70
2023/01/14 10:54:18;;;;;;;4.93;2.55;;;;;;;;;;4978046;28;100774;-70
2023/01/14 10:56:47;;;;;;;5.45;1.95;;;;;;;;;;4983855;28;100941;-69
2023/01/14 10:59:34;;;;;;;5.18;2.17;;;;;;;;;;4986424;28;100029;-70
2023/01/14 11:02:00;;;;;;;9.38;2.40;;;;;;;;;;4993390;28;99192;-71
2023/01/14 11:04:45;;;;;;;11.35;2.55;;;;;;;;;;4980747;28;100198;-71
2023/01/14 11:07:14;;;;;;;9.65;2.40;;;;;;;;;;4984441;28;100312;-71
2023/01/14 11:09:41;;;;;;;12.13;4.00;;;;;;;;;;4981716;28;99298;-71
2023/01/14 11:12:23;;;;;;;11.25;3.10;;;;;;;;;;4984744;28;99344;-71
2023/01/14 11:14:50;;;;;;;;;;;;;;;;;;4986817;28;99517;-71
2023/01/14 11:17:23;;;;;;;7.28;2.00;;;;;;;;;;4983906;28;129961;-70
2023/01/14 11:19:50;;;;;;;6.28;2.10;;;;;;;;;;4989330;28;100311;-70
2023/01/14 11:22:17;;;;;;;6.22;2.30;;;;;;;;;;4979997;28;99306;-71
2023/01/14 11:24:45;;;;;;;5.20;1.67;;;;;;;;;;4977628;28;100084;-70
2023/01/14 11:27:14;;;;;;;5.68;2.08;;;;;;;;;;4983528;28;99542;-70
2023/01/14 11:29:53;;;;;;;10.32;2.28;;;;;;;;;;4979488;28;99344;-70
2023/01/14 11:32:24;;;;;;;3.72;1.90;;;;;;;;;;4979714;28;99853;-70
2023/01/14 11:34:51;;;;;;;3.95;1.95;;;;;;;;;;4986780;28;99914;-70
2023/01/14 11:37:23;;;;;;;2.65;1.80;;;;;;;;;;4988210;28;99276;-71
2023/01/14 11:40:00;;;;;;;6.13;1.60;;;;;;;;;;4980282;28;100979;-71
2023/01/14 11:42:26;;;;;;;1.58;1.20;;;;;;;;;;4981328;28;101085;-72
2023/01/14 11:44:58;;;;;;;5.68;1.90;;;;;;;;;;4979717;28;100611;-71
2023/01/14 11:47:26;;;;;;;3.05;1.45;;;;;;;;;;4975707;28;100201;-70
2023/01/14 11:50:11;;;;;;;4.10;1.55;;;;;;;;;;4973472;28;101449;-71
2023/01/14 11:52:37;;;;;;;2.38;1.38;;;;;;;;;;4974968;28;99934;-71
2023/01/14 11:55:11;;;;;;;2.53;1.67;;;;;;;;;;4982908;28;100381;-71
2023/01/14 11:57:37;;;;;;;12.85;2.05;;;;;;;;;;4986302;28;102695;-70
2023/01/14 12:00:04;;;;;;;6.65;1.70;;;;;;;;;;4976423;28;99026;-70
2023/01/14 12:02:40;;;;;;;2.50;1.30;;;;;;;;;;4977056;28;98658;-70
2023/01/14 12:05:17;;;;;;;5.25;1.55;;;;;;;;;;4979014;28;100369;-71
2023/01/14 12:07:52;;;;;;;1.75;1.30;;;;;;;;;;4979776;28;100958;-71
2023/01/14 12:10:27;;;;;;;3.55;1.65;;;;;;;;;;4978547;28;100145;-70
2023/01/14 12:18:52;;;;;;;3.33;1.55;;;;;;;;;;4983405;28;100043;-71
2023/01/14 12:21:30;;;;;;;6.95;1.90;;;;;;;;;;4977635;28;99715;-71
2023/01/14 12:24:16;;;;;;;1.65;1.42;;;;;;;;;;4980318;28;100036;-72
2023/01/14 12:26:44;;;;;;;1.70;1.42;;;;;;;;;;4971979;28;99846;-72
2023/01/14 12:29:14;;;;;;;4.10;1.35;;;;;;;;;;4979386;28;99630;-72
2023/01/14 12:31:52;;;;;;;5.53;1.60;;;;;;;;;;4982491;28;99753;-73
2023/01/14 12:34:24;;;;;;;1.77;1.45;;;;;;;;;;4969617;28;100038;-72
2023/01/14 12:37:02;;;;;;;2.55;1.67;;;;;;;;;;4976345;28;99753;-72
2023/01/14 12:48:07;;;;;;;4.50;1.80;;;;;;;;;;4978524;28;99237;-72
2023/01/14 12:50:36;;;;;;;4.07;1.58;;;;;;;;;;4976251;28;101971;-71
2023/01/14 12:53:02;;;;;;;3.50;1.35;;;;;;;;;;4982984;28;100516;-71
2023/01/14 12:55:29;;;;;;;4.30;1.30;;;;;;;;;;4982645;28;99646;-71
2023/01/14 12:57:57;;;;;;;2.10;1.33;;;;;;;;;;4979558;28;100417;-72
2023/01/14 13:00:24;;;;;;;1.73;1.45;;;;;;;;;;4976542;28;102440;-72
2023/01/14 13:02:53;;;;;;;1.98;1.50;;;;;;;;;;4974057;28;99951;-72
2023/01/14 13:05:30;;;;;;;4.00;1.60;;;;;;;;;;4980901;28;101965;-71
2023/01/14 13:07:58;;;;;;;1.58;1.42;;;;;;;;;;4989055;28;99083;-71
2023/01/14 13:10:30;;;;;;;1.90;1.40;;;;;;;;;;4982814;28;100231;-72
2023/01/14 13:12:57;;;;;;;1.60;1.40;;;;;;;;;;4982719;28;99955;-72
2023/01/14 13:15:25;;;;;;;5.13;1.40;;;;;;;;;;4982100;28;99860;-72
2023/01/14 13:17:58;;;;;;;2.80;1.42;;;;;;;;;;4976906;28;98748;-73
2023/01/14 13:20:32;;;;;;;1.52;1.40;;;;;;;;;;4975208;28;99255;-72
2023/01/14 13:23:02;;;;;;;5.78;1.92;;;;;;;;;;4977771;28;100260;-72
2023/01/14 13:25:34;;;;;;;1.77;1.67;;;;;;;;;;4973151;28;99951;-73
2023/01/14 13:28:02;;;;;;;1.23;1.23;;;;;;;;;;4980160;28;99187;-73
2023/01/14 13:30:29;;;;;;;3.10;1.30;;;;;;;;;;4983117;28;99029;-72
2023/01/14 13:33:02;;;;;;;1.60;1.50;;;;;;;;;;4985106;28;99162;-72
2023/01/14 13:35:30;;;;;;;1.83;1.67;;;;;;;;;;4965823;28;99380;-71
2023/01/14 13:37:58;;;;;;;2.42;1.33;;;;;;;;;;4975369;28;100254;-72
2023/01/14 13:40:26;;;;;;;4.63;1.45;;;;;;;;;;4978086;28;100628;-71
2023/01/14 13:43:11;;;;;;;3.05;2.35;;;;;;;;;;4987022;28;99116;-71
2023/01/14 13:45:38;;;;;;;3.05;1.80;;;;;;;;;;4985785;28;99396;-72
2023/01/14 13:48:24;;;;;;;3.33;1.70;;;;;;;;;;4977036;28;100856;-72
2023/01/14 13:50:52;;;;;;;2.88;1.67;;;;;;;;;;4986065;28;99916;-72
2023/01/14 13:53:18;;;;;;;3.88;1.70;;;;;;;;;;4979606;28;101823;-72
2023/01/14 13:55:53;;;;;;;1.88;1.77;;;;;;;;;;4980675;28;99037;-72
2023/01/14 13:58:30;;;;;;;1.40;1.40;;;;;;;;;;4975840;28;100204;-72
2023/01/14 14:01:14;;;;;;;3.35;1.55;;;;;;;;;;4976421;28;99009;-72
2023/01/14 14:03:41;;;;;;;3.28;1.77;;;;;;;;;;4977513;28;100227;-71
2023/01/14 14:06:29;;;;;;;2.22;2.03;;;;;;;;;;4978375;28;99996;-72
2023/01/14 14:08:59;;;;;;;3.63;1.65;;;;;;;;;;4975020;28;99334;-71
2023/01/14 14:11:27;;;;;;;1.70;1.60;;;;;;;;;;4977274;28;100624;-72
2023/01/14 14:14:07;;;;;;;3.00;1.48;;;;;;;;;;4979661;28;100167;-71
2023/01/14 14:16:45;;;;;;;3.45;1.50;;;;;;;;;;4998127;28;99321;-72
2023/01/14 14:19:17;;;;;;;1.63;1.50;;;;;;;;;;4984212;28;99649;-71
2023/01/14 14:21:46;;;;;;;2.53;1.80;;;;;;;;;;4986258;28;100375;-72
2023/01/14 14:24:25;;;;;;;2.92;1.75;;;;;;;;;;4984411;28;99199;-72
2023/01/14 14:26:55;;;;;;;2.35;1.63;;;;;;;;;;4977830;28;100453;-70
2023/01/14 14:29:22;;;;;;;2.33;1.63;;;;;;;;;;4976434;28;100411;-71
2023/01/14 14:31:57;;;;;;;1.67;1.58;;;;;;;;;;4977082;28;99833;-71
2023/01/14 14:34:24;;;;;;;2.17;1.90;;;;;;;;;;4980745;28;99135;-72
2023/01/14 14:36:58;;;;;;;1.95;1.50;;;;;;;;;;4979521;28;100000;-72
2023/01/14 14:39:29;;;;;;;1.95;1.83;;;;;;;;;;4977724;28;101992;-72
2023/01/14 14:41:55;;;;;;;2.20;2.10;;;;;;;;;;4980916;28;102019;-73
2023/01/14 14:44:26;;;;;;;3.55;1.92;;;;;;;;;;4978791;28;100973;-72
2023/01/14 14:46:53;;;;;;;1.85;1.60;;;;;;;;;;4975850;28;99487;-71
2023/01/14 14:49:19;;;;;;;2.30;2.10;;;;;;;;;;4980509;28;100272;-71
2023/01/14 14:51:47;;;;;;;2.88;1.83;;;;;;;;;;4978577;28;99126;-72
2023/01/14 14:54:27;;;;;;;4.63;2.15;;;;;;;;;;4981949;28;99831;-72
2023/01/14 14:56:55;;;;;;;2.28;2.08;;;;;;;;;;4977847;28;99380;-71
2023/01/14 14:59:23;;;;;;;3.45;1.60;;;;;;;;;;4983204;28;99684;-72
2023/01/14 15:01:50;;;;;;;1.55;1.45;;;;;;;;;;4977158;28;99899;-72
2023/01/14 15:04:18;;;;;;;2.03;1.60;;;;;;;;;;4978487;28;99149;-72
2023/01/14 15:06:45;;;;;;;2.50;1.75;;;;;;;;;;4979009;28;100312;-72
2023/01/14 15:09:14;;;;;;;2.20;1.80;;;;;;;;;;4980101;28;99317;-72
2023/01/14 15:11:43;;;;;;;2.63;1.92;;;;;;;;;;4979410;28;99669;-73
2023/01/14 15:14:28;;;;;;;1.83;1.60;;;;;;;;;;4972487;28;99680;-73
2023/01/14 15:16:54;;;;;;;1.90;1.80;;;;;;;;;;4983177;28;100175;-72
2023/01/14 15:19:22;;;;;;;2.22;2.03;;;;;;;;;;4980703;28;99463;-73
2023/01/14 15:21:49;;;;;;;2.00;1.88;;;;;;;;;;4972364;28;100420;-72